This is the latest recevied weather packets stored in our database for station/object E25RIV-1. If no packets are shown the sender has not sent any weather packets the latest 10 day(s).
| Time | Temp. | Humidity | Pressure | Rain* | Wind** | Luminosity | Snow |
|---|---|---|---|---|---|---|---|
| 1777783066 | 36.67° C | 51% | 995 hPa | - | - | 0 W/m² | - |
| 1777782442 | 37.22° C | 49% | 993 hPa | - | - | 0 W/m² | - |
| 1777781818 | 38.33° C | 49% | 993 hPa | - | - | 0 W/m² | - |
| 1777781194 | 36.67° C | 52% | 995 hPa | - | - | 0 W/m² | - |
| 1777780570 | 36.67° C | 51% | 995 hPa | - | - | 0 W/m² | - |
| 1777779945 | 36.67° C | 54% | 996 hPa | - | - | 0 W/m² | - |
| 1777779322 | 36.67° C | 53% | 996 hPa | - | - | 0 W/m² | - |
| 1777778698 | 36.67° C | 53% | 996 hPa | - | - | 0 W/m² | - |
| 1777778074 | 36.11° C | 54% | 996 hPa | - | - | 0 W/m² | - |
| 1777777450 | 36.11° C | 56% | 997 hPa | - | - | 0 W/m² | - |
| 1777776826 | 35.56° C | 59% | 998 hPa | - | - | 0 W/m² | - |
| 1777776201 | 35° C | 61% | 1000 hPa | - | - | 0 W/m² | - |
| 1777775578 | 35° C | 63% | 1000 hPa | - | - | 0 W/m² | - |
| 1777774954 | 35° C | 63% | 1000 hPa | - | - | 0 W/m² | - |
| 1777774330 | 34.44° C | 65% | 1001 hPa | - | - | 0 W/m² | - |
| 1777773706 | 35° C | 64% | 1000 hPa | - | - | 0 W/m² | - |
| 1777773082 | 34.44° C | 66% | 1001 hPa | - | - | 0 W/m² | - |
| 1777772458 | 34.44° C | 68% | 1001 hPa | - | - | 0 W/m² | - |
| 1777771834 | 34.44° C | 69% | 1002 hPa | - | - | 0 W/m² | - |
| 1777771210 | 35° C | 69% | 1002 hPa | - | - | 0 W/m² | - |
| 1777770586 | 35.56° C | 68% | 1001 hPa | - | - | 0 W/m² | - |
| 1777769962 | 35° C | 69% | 1001 hPa | - | - | 0 W/m² | - |
| 1777769338 | 34.44° C | 73% | 1001 hPa | - | - | 0 W/m² | - |
| 1777768714 | 34.44° C | 73% | 1001 hPa | - | - | 0 W/m² | - |
| 1777768090 | 33.89° C | 82% | 1003 hPa | - | - | 0 W/m² | - |
* Rain since midnight (hover to see other rain measurements)
** Current wind speed in m/s (hover to see current wind gust speed)